Wednesday, July 23, 2014
14:04 UTC
  |  Log In   |  Register Free
Airport Search:

Indiana County/Jimmy Stewart Fld/ Airport
(KIDI)

Indiana County/Jimmy Stewart Fld/ Airport Diagram
No Airport Diagram Available

FAA data valid effective May 29, 2014 until July 24, 2014 (unless otherwise noted).

 
 
 
 
 
 
 
 
 
 
 
 
 
 

Current Aviation Weather for Indiana County/Jimmy Stewart Fld/ Airport (KIDI)

The most recent METAR observation for KIDI was updated at: 1335 UTC
METAR Summary (Translated METAR)
KIDI
231335Z AUTO 24009KT 9SM CLR 24/22 A3003 RMK A01
KJST
(22.7 nm SE from KIDI)
231254Z AUTO 24006KT 10SM FEW065 23/20 A3006 RMK AO2 SLP161 T02280200
TAF Summary (Translated TAF)
KJST
(22.7 nm SE from KIDI)
231120Z 2312/2412 23005KT P6SM SCT040 FM231900 27010KT P6SM VCTS BKN040CB FM232300 30008KT P6SM BKN025 FM240400 33005KT P6SM BKN015
KLBE
(25.5 nm SW from KIDI)
231120Z 2312/2412 21005KT P6SM -SHRA VCTS BKN040CB FM231300 23008KT P6SM BKN050 FM231900 23013KT 5SM -SHRA VCTS BKN035CB FM240300 28012KT P6SM BKN035
  Airport Weather Conditions for KIDI

 Current Weather at IDI
75° F
Fair
Southwest winds at 6.9 mph
IDI NOAA Radar

Pressure: 30.05 in
Humidity: 83%
Wind: from the Southwest at 6.9 gusting to 12.7 MPH (6 gusting to 11 KT)
Dew Point: 69.8°F
Visibility: 8.00 mi


Airport Weather Forecast for KIDI

Translated METAR and TAF for KIDI
Translated METAR for KIDI (1358 UTC 23 July 2014)
found at http://aviationweather.gov/adds/metars/
 
METAR text: KIDI 231355Z AUTO 23006KT 9SM CLR 25/22 A3002 RMK A01
Conditions at: KIDI (INDIANA/STEWART , PA, US) observed 1355 UTC 23 July 2014
Temperature: 25.0°C (77°F)
Dewpoint: 22.0°C (72°F) [RH = 83%]
Pressure (altimeter): 30.02 inches Hg (1016.7 mb)
Winds: from the SW (230 degrees) at 7 MPH (6 knots; 3.1 m/s)
Visibility: 9 miles (14 km)
Ceiling: at least 12,000 feet AGL
Clouds: sky clear below 12,000 feet AGL
Weather: automated observation with no human augmentation;
there may or may not be significant weather present at this time
Translated TAF for KIDI

There is no translated TAF available for this airport

Find All Airport Services Find A Hotel Find A Rental Car Find A Golf Course Find A Restaurant $100 Hamburger



FBO's on the Field
FBO Company Facility Photos Services Transportation Aviation Fuel Prices: Prices include tax
Catering Weather Repair Courtesy Rental Type 100LL JetA JetA+ MOGAS 8087
 
Indiana County Jimmy Stewart Airport

Currently rated 5 by 1 person
FS:Phillips66
Last Updated: Jul-17
Login to update fuel prices
SS:
Contact Indiana County Jimmy Stewart AirportMore FBO Information
 
Add another FBO Facility Photos Catering Weather Repair Courtesy Rental Type 100LL JetA JetA+ MOGAS 8087
Services Transportation Aviation Fuel Prices: Prices include tax


GlobalAir.com Airport Resource Center model-print
model-print
model-print
model-print